Time,TemperatureF,DewpointF,PressureIn,WindDirection,WindDirectionDegrees,WindSpeedMPH,WindSpeedGustMPH,Humidity,HourlyPrecipIn,Conditions,Clouds,dailyrainin,SoftwareType,DateUTC
2013-06-25 00:12:00,67.9,67.0,29.90,SE,128,0.0,3.0,96,0.00,,,0.00,weatherlink.com 1.10,2013-06-25 04:12:00,
2013-06-25 00:27:00,67.6,67.0,29.89,SE,128,0.0,0.0,96,0.00,,,0.00,weatherlink.com 1.10,2013-06-25 04:27:00,
2013-06-25 00:42:00,67.4,66.0,29.87,SSW,205,0.0,3.0,96,0.00,,,0.00,weatherlink.com 1.10,2013-06-25 04:42:00,
2013-06-25 00:57:00,67.9,67.0,29.87,West,279,0.0,3.0,96,0.00,,,0.00,weatherlink.com 1.10,2013-06-25 04:57:00,
2013-06-25 01:12:00,68.1,67.0,29.86,WNW,303,0.0,4.0,95,0.00,,,0.00,weatherlink.com 1.10,2013-06-25 05:12:00,
2013-06-25 01:28:00,68.4,66.0,29.86,NW,309,0.0,2.0,93,0.00,,,0.00,weatherlink.com 1.10,2013-06-25 05:28:00,
2013-06-25 01:43:00,68.2,66.0,29.86,SSE,161,2.0,4.0,93,0.00,,,0.00,weatherlink.com 1.10,2013-06-25 05:43:00,
2013-06-25 01:58:00,68.3,66.0,29.86,South,175,0.0,3.0,92,0.00,,,0.00,weatherlink.com 1.10,2013-06-25 05:58:00,
2013-06-25 02:13:00,68.2,66.0,29.86,South,176,0.0,4.0,92,0.00,,,0.00,weatherlink.com 1.10,2013-06-25 06:13:00,
2013-06-25 02:28:00,67.7,66.0,29.86,South,176,0.0,0.0,94,0.00,,,0.00,weatherlink.com 1.10,2013-06-25 06:28:00,
2013-06-25 02:43:00,67.0,66.0,29.86,South,176,0.0,1.0,95,0.00,,,0.00,weatherlink.com 1.10,2013-06-25 06:43:00,
2013-06-25 02:59:00,66.4,65.0,29.86,South,176,0.0,1.0,96,0.00,,,0.00,weatherlink.com 1.10,2013-06-25 06:59:00,
2013-06-25 03:13:00,65.9,65.0,29.86,South,177,0.0,1.0,96,0.00,,,0.00,weatherlink.com 1.10,2013-06-25 07:13:00,
2013-06-25 03:28:00,65.7,65.0,29.86,South,177,0.0,1.0,97,0.00,,,0.00,weatherlink.com 1.10,2013-06-25 07:28:00,
2013-06-25 03:43:00,65.2,64.0,29.86,South,177,0.0,1.0,97,0.00,,,0.00,weatherlink.com 1.10,2013-06-25 07:43:00,
2013-06-25 03:58:00,65.1,64.0,29.86,South,177,0.0,0.0,97,0.00,,,0.00,weatherlink.com 1.10,2013-06-25 07:58:00,
2013-06-25 04:13:00,65.0,64.0,29.85,South,177,0.0,0.0,97,0.00,,,0.00,weatherlink.com 1.10,2013-06-25 08:13:00,
2013-06-25 04:28:00,64.9,64.0,29.85,South,177,0.0,0.0,97,0.00,,,0.00,weatherlink.com 1.10,2013-06-25 08:28:00,
2013-06-25 04:43:00,64.9,64.0,29.86,South,177,0.0,0.0,97,0.00,,,0.00,weatherlink.com 1.10,2013-06-25 08:43:00,
2013-06-25 04:58:00,64.4,64.0,29.86,South,177,0.0,0.0,97,0.00,,,0.00,weatherlink.com 1.10,2013-06-25 08:58:00,
2013-06-25 05:13:00,64.2,63.0,29.86,South,177,0.0,1.0,97,0.00,,,0.00,weatherlink.com 1.10,2013-06-25 09:13:00,
2013-06-25 05:28:00,64.2,64.0,29.86,South,177,0.0,0.0,98,0.00,,,0.00,weatherlink.com 1.10,2013-06-25 09:28:00,
2013-06-25 05:43:00,64.2,64.0,29.86,South,177,0.0,0.0,98,0.00,,,0.00,weatherlink.com 1.10,2013-06-25 09:43:00,
2013-06-25 05:58:00,64.2,64.0,29.85,South,177,0.0,1.0,98,0.00,,,0.00,weatherlink.com 1.10,2013-06-25 09:58:00,
2013-06-25 06:13:00,64.6,64.0,29.85,South,177,0.0,1.0,98,0.00,,,0.00,weatherlink.com 1.10,2013-06-25 10:13:00,
2013-06-25 06:28:00,64.9,64.0,29.85,South,177,0.0,1.0,98,0.00,,,0.00,weatherlink.com 1.10,2013-06-25 10:28:00,
2013-06-25 06:43:00,65.6,65.0,29.85,South,177,0.0,1.0,98,0.00,,,0.00,weatherlink.com 1.10,2013-06-25 10:43:00,
2013-06-25 06:58:00,66.3,66.0,29.85,South,177,0.0,1.0,98,0.00,,,0.00,weatherlink.com 1.10,2013-06-25 10:58:00,
2013-06-25 07:13:00,67.0,66.0,29.85,South,177,0.0,0.0,97,0.00,,,0.00,weatherlink.com 1.10,2013-06-25 11:13:00,
2013-06-25 07:28:00,68.3,67.0,29.84,South,177,0.0,0.0,96,0.00,,,0.00,weatherlink.com 1.10,2013-06-25 11:28:00,
2013-06-25 07:43:00,70.3,68.0,29.84,WNW,291,0.0,4.0,92,0.00,,,0.00,weatherlink.com 1.10,2013-06-25 11:43:00,
2013-06-25 07:58:00,72.2,68.0,29.84,SSW,197,0.0,2.0,87,0.00,,,0.00,weatherlink.com 1.10,2013-06-25 11:58:00,
2013-06-25 08:13:00,73.7,69.0,29.83,SSW,204,0.0,1.0,84,0.00,,,0.00,weatherlink.com 1.10,2013-06-25 12:13:00,
2013-06-25 08:28:00,74.7,69.0,29.83,West,262,0.0,3.0,83,0.00,,,0.00,weatherlink.com 1.10,2013-06-25 12:28:00,
2013-06-25 08:43:00,75.7,70.0,29.83,West,265,0.0,1.0,82,0.00,,,0.00,weatherlink.com 1.10,2013-06-25 12:43:00,
2013-06-25 08:58:00,76.6,70.0,29.82,West,265,0.0,2.0,81,0.00,,,0.00,weatherlink.com 1.10,2013-06-25 12:58:00,
2013-06-25 09:13:00,76.8,70.0,29.82,WNW,290,0.0,3.0,80,0.00,,,0.00,weatherlink.com 1.10,2013-06-25 13:13:00,
2013-06-25 09:28:00,76.9,70.0,29.82,WNW,294,1.0,5.0,78,0.00,,,0.00,weatherlink.com 1.10,2013-06-25 13:28:00,
2013-06-25 09:43:00,77.3,70.0,29.81,West,275,0.0,6.0,78,0.00,,,0.00,weatherlink.com 1.10,2013-06-25 13:43:00,
2013-06-25 09:58:00,77.9,71.0,29.82,WNW,298,4.0,6.0,78,0.00,,,0.00,weatherlink.com 1.10,2013-06-25 13:58:00,
2013-06-25 10:15:00,79.1,70.0,29.82,WNW,295,3.0,5.0,74,0.00,,,0.00,weatherlink.com 1.10,2013-06-25 14:15:00,
2013-06-25 10:29:00,80.0,71.0,29.82,SSE,166,1.0,7.0,73,0.00,,,0.00,weatherlink.com 1.10,2013-06-25 14:29:00,
2013-06-25 10:44:00,80.5,71.0,29.83,West,275,0.0,5.0,72,0.00,,,0.00,weatherlink.com 1.10,2013-06-25 14:44:00,
2013-06-25 10:59:00,80.9,70.0,29.83,SSE,159,1.0,7.0,69,0.00,,,0.00,weatherlink.com 1.10,2013-06-25 14:59:00,
2013-06-25 11:14:00,81.9,71.0,29.83,SW,229,0.0,5.0,69,0.00,,,0.00,weatherlink.com 1.10,2013-06-25 15:14:00,
2013-06-25 11:29:00,83.1,70.0,29.82,South,186,0.0,5.0,65,0.00,,,0.00,weatherlink.com 1.10,2013-06-25 15:29:00,
2013-06-25 11:44:00,84.1,71.0,29.82,West,273,4.0,8.0,65,0.00,,,0.00,weatherlink.com 1.10,2013-06-25 15:44:00,
2013-06-25 11:59:00,84.1,71.0,29.81,WNW,287,1.0,7.0,65,0.00,,,0.00,weatherlink.com 1.10,2013-06-25 15:59:00,
2013-06-25 12:14:00,84.7,71.0,29.81,WSW,254,0.0,7.0,63,0.00,,,0.00,weatherlink.com 1.10,2013-06-25 16:14:00,
2013-06-25 12:29:00,85.3,72.0,29.80,WSW,248,0.0,6.0,64,0.00,,,0.00,weatherlink.com 1.10,2013-06-25 16:29:00,
2013-06-25 12:44:00,86.3,71.0,29.80,WNW,282,0.0,6.0,61,0.00,,,0.00,weatherlink.com 1.10,2013-06-25 16:44:00,
2013-06-25 12:59:00,87.1,70.0,29.79,West,263,0.0,7.0,58,0.00,,,0.00,weatherlink.com 1.10,2013-06-25 16:59:00,
2013-06-25 13:14:00,86.1,71.0,29.78,WSW,249,2.0,9.0,60,0.00,,,0.00,weatherlink.com 1.10,2013-06-25 17:14:00,
2013-06-25 13:29:00,85.9,72.0,29.77,WSW,247,0.0,6.0,64,0.00,,,0.00,weatherlink.com 1.10,2013-06-25 17:29:00,
2013-06-25 13:44:00,87.1,69.0,29.76,SSW,211,0.0,6.0,56,0.00,,,0.00,weatherlink.com 1.10,2013-06-25 17:44:00,
2013-06-25 13:59:00,87.6,69.0,29.75,South,183,3.0,8.0,54,0.00,,,0.00,weatherlink.com 1.10,2013-06-25 17:59:00,
2013-06-25 14:14:00,87.9,68.0,29.74,West,274,1.0,11.0,51,0.00,,,0.00,weatherlink.com 1.10,2013-06-25 18:14:00,
2013-06-25 14:29:00,88.4,67.0,29.74,SSW,209,2.0,8.0,50,0.00,,,0.00,weatherlink.com 1.10,2013-06-25 18:29:00,
2013-06-25 14:44:00,88.4,69.0,29.73,West,267,4.0,6.0,53,0.00,,,0.00,weatherlink.com 1.10,2013-06-25 18:44:00,
2013-06-25 14:59:00,87.9,69.0,29.72,NW,306,0.0,7.0,53,0.00,,,0.00,weatherlink.com 1.10,2013-06-25 18:59:00,
2013-06-25 15:14:00,87.3,69.0,29.71,WSW,254,0.0,7.0,55,0.00,,,0.00,weatherlink.com 1.10,2013-06-25 19:14:00,
2013-06-25 15:29:00,87.5,70.0,29.71,West,276,1.0,4.0,57,0.00,,,0.00,weatherlink.com 1.10,2013-06-25 19:29:00,
2013-06-25 15:44:00,87.9,69.0,29.70,WSW,248,1.0,6.0,54,0.00,,,0.00,weatherlink.com 1.10,2013-06-25 19:44:00,
2013-06-25 15:59:00,87.1,70.0,29.70,West,271,0.0,2.0,58,0.00,,,0.00,weatherlink.com 1.10,2013-06-25 19:59:00,
2013-06-25 16:14:00,86.0,69.0,29.70,WNW,288,0.0,4.0,57,0.00,,,0.00,weatherlink.com 1.10,2013-06-25 20:14:00,
2013-06-25 16:29:00,85.3,69.0,29.69,WNW,297,0.0,5.0,58,0.00,,,0.00,weatherlink.com 1.10,2013-06-25 20:29:00,
2013-06-25 16:44:00,84.5,70.0,29.70,WNW,290,0.0,1.0,63,0.00,,,0.00,weatherlink.com 1.10,2013-06-25 20:44:00,
2013-06-25 16:59:00,82.8,67.0,29.71,WNW,299,3.0,13.0,60,0.00,,,0.00,weatherlink.com 1.10,2013-06-25 20:59:00,
2013-06-25 17:14:00,81.2,68.0,29.70,SW,216,0.0,7.0,64,0.00,,,0.00,weatherlink.com 1.10,2013-06-25 21:14:00,
2013-06-25 17:31:00,79.4,68.0,29.71,WNW,288,4.0,11.0,68,0.00,,,0.00,weatherlink.com 1.10,2013-06-25 21:31:00,
2013-06-25 17:44:00,77.0,69.0,29.72,SW,231,1.0,12.0,77,0.01,,,0.01,weatherlink.com 1.10,2013-06-25 21:44:00,
2013-06-25 17:59:00,73.2,69.0,29.74,WNW,292,9.0,14.0,86,0.04,,,0.04,weatherlink.com 1.10,2013-06-25 21:59:00,
2013-06-25 18:15:00,71.8,68.0,29.73,WNW,285,6.0,16.0,87,0.07,,,0.07,weatherlink.com 1.10,2013-06-25 22:15:00,
2013-06-25 18:30:00,71.6,68.0,29.72,West,280,0.0,1.0,89,0.07,,,0.07,weatherlink.com 1.10,2013-06-25 22:30:00,
2013-06-25 18:45:00,71.9,69.0,29.73,South,181,0.0,5.0,89,0.06,,,0.07,weatherlink.com 1.10,2013-06-25 22:45:00,
2013-06-25 19:00:00,71.8,69.0,29.73,East,97,0.0,3.0,90,0.02,,,0.07,weatherlink.com 1.10,2013-06-25 23:00:00,
2013-06-25 19:15:00,71.3,69.0,29.77,West,261,5.0,8.0,92,0.00,,,0.07,weatherlink.com 1.10,2013-06-25 23:15:00,
2013-06-25 19:30:00,70.7,68.0,29.75,WNW,294,0.0,4.0,91,0.04,,,0.11,weatherlink.com 1.10,2013-06-25 23:30:00,
2013-06-25 19:45:00,70.0,68.0,29.73,NW,317,0.0,1.0,92,0.06,,,0.13,weatherlink.com 1.10,2013-06-25 23:45:00,
2013-06-25 20:00:00,69.7,68.0,29.73,NW,317,0.0,1.0,94,0.08,,,0.15,weatherlink.com 1.10,2013-06-26 00:00:00,
2013-06-25 20:15:00,69.4,68.0,29.73,NW,317,1.0,1.0,94,0.07,,,0.15,weatherlink.com 1.10,2013-06-26 00:15:00,
2013-06-25 20:30:00,68.9,68.0,29.72,NW,315,0.0,1.0,95,0.04,,,0.15,weatherlink.com 1.10,2013-06-26 00:30:00,
2013-06-25 20:45:00,68.5,67.0,29.72,NW,315,0.0,1.0,95,0.01,,,0.15,weatherlink.com 1.10,2013-06-26 00:45:00,
2013-06-25 21:00:00,68.4,67.0,29.71,NW,315,0.0,0.0,96,0.00,,,0.15,weatherlink.com 1.10,2013-06-26 01:00:00,
2013-06-25 21:15:00,68.4,67.0,29.71,NW,315,0.0,0.0,96,0.00,,,0.15,weatherlink.com 1.10,2013-06-26 01:15:00,
2013-06-25 21:30:00,68.3,67.0,29.71,NW,315,0.0,0.0,96,0.00,,,0.15,weatherlink.com 1.10,2013-06-26 01:30:00,
2013-06-25 21:45:00,68.3,67.0,29.72,NW,315,0.0,0.0,96,0.00,,,0.15,weatherlink.com 1.10,2013-06-26 01:45:00,
2013-06-25 22:00:00,68.0,67.0,29.72,NW,315,0.0,0.0,96,0.00,,,0.15,weatherlink.com 1.10,2013-06-26 02:00:00,
2013-06-25 22:15:00,67.9,67.0,29.73,NW,315,0.0,0.0,97,0.00,,,0.15,weatherlink.com 1.10,2013-06-26 02:15:00,
2013-06-25 22:30:00,67.7,67.0,29.73,NW,315,0.0,0.0,97,0.00,,,0.15,weatherlink.com 1.10,2013-06-26 02:30:00,
2013-06-25 22:45:00,67.7,67.0,29.72,NW,315,0.0,0.0,97,0.00,,,0.15,weatherlink.com 1.10,2013-06-26 02:45:00,
2013-06-25 23:00:00,67.5,67.0,29.72,NW,315,0.0,0.0,97,0.00,,,0.15,weatherlink.com 1.10,2013-06-26 03:00:00,
2013-06-25 23:15:00,67.6,67.0,29.72,NW,315,0.0,0.0,97,0.00,,,0.15,weatherlink.com 1.10,2013-06-26 03:15:00,
2013-06-25 23:30:00,67.6,67.0,29.72,NW,315,0.0,0.0,97,0.00,,,0.15,weatherlink.com 1.10,2013-06-26 03:30:00,
2013-06-25 23:45:00,67.6,67.0,29.71,NW,315,0.0,0.0,97,0.00,,,0.15,weatherlink.com 1.10,2013-06-26 03:45:00,